Berlin Township, New Jersey
Current Conditions -  °F | °C
As of 5:54 PM on Saturday 20 Dec 2014 (Local Time) from KVAY Reporting Station
Overcast Overcast  
Wind Chill: 32°   Ceiling: 3400
Heat Index: 32°   Visibility: 10mi
Dew Point: 22°   Wind: 0mph
Humidity: 66%   Direction: NA
Pressure: 30.29"   Gusts: NA
Location:  39.8119°N, 74.9426°W
Report Text: KVAY 202254Z AUTO 00000KT 10SM OVC034 00/M06 A3029 RMK AO2 SLP257 T00001056
Loading
Personal Weather Stations






























Interactive Weather Map New forecast layout! Learn more

10-Day Weather Forecast

Advertisements
Track Severe Weather on mobile